Time;durP1;ratioP1;P1;durP2;ratioP2;P2;SDS_P1;SDS_P2;PMS_P1;PMS_P2;Temp;Humidity;BMP_temperature;BMP_pressure;BME280_temperature;BME280_humidity;BME280_pressure;Samples;Min_cycle;Max_cycle;Signal;HPM_P1;HPM_P2
2022/12/05 00:00:56;;;;;;;29.85;20.20;;;5.80;99.90;;;;;;4980726;28;20121;-66
2022/12/05 00:03:22;;;;;;;29.70;21.10;;;3.90;99.90;;;;;;4982087;28;20145;-65
2022/12/05 00:05:48;;;;;;;31.23;21.17;;;3.80;99.90;;;;;;4994693;28;20049;-65
2022/12/05 00:08:14;;;;;;;31.35;21.48;;;4.00;99.90;;;;;;4981222;28;20038;-65
2022/12/05 00:10:39;;;;;;;31.42;21.92;;;4.10;99.90;;;;;;4981432;28;20133;-65
2022/12/05 00:13:05;;;;;;;29.00;20.75;;;4.20;99.90;;;;;;4982204;28;20069;-65
2022/12/05 00:15:38;;;;;;;32.58;21.48;;;4.00;99.90;;;;;;4982352;28;20047;-65
2022/12/05 00:18:04;;;;;;;33.00;22.00;;;4.10;99.90;;;;;;4980764;28;20717;-65
2022/12/05 00:20:30;;;;;;;30.60;21.67;;;4.10;99.90;;;;;;4983222;28;20038;-65
2022/12/05 00:22:55;;;;;;;32.80;22.45;;;4.20;99.90;;;;;;4982657;28;20292;-65
2022/12/05 00:25:21;;;;;;;33.03;22.60;;;4.20;99.90;;;;;;4980864;28;20084;-65
2022/12/05 00:27:46;;;;;;;32.78;21.85;;;4.20;99.90;;;;;;4965212;28;20073;-66
2022/12/05 00:30:12;;;;;;;33.10;23.45;;;4.80;99.90;;;;;;4982057;28;20485;-65
2022/12/05 00:32:38;;;;;;;32.40;22.00;;;4.20;99.90;;;;;;4981863;28;20620;-65
2022/12/05 00:35:04;;;;;;;33.60;23.63;;;5.10;99.90;;;;;;4981240;28;20072;-65
2022/12/05 00:37:29;;;;;;;33.55;23.23;;;4.20;99.90;;;;;;4982419;28;20061;-65
2022/12/05 00:39:55;;;;;;;37.15;24.50;;;4.40;99.90;;;;;;4981190;28;20081;-65
2022/12/05 00:42:21;;;;;;;35.28;24.50;;;4.40;99.90;;;;;;4981853;28;20073;-65
2022/12/05 00:44:48;;;;;;;35.65;23.88;;;4.60;99.90;;;;;;4985775;28;20413;-65
2022/12/05 00:47:14;;;;;;;34.97;23.55;;;4.40;99.90;;;;;;5000809;28;20476;-65
2022/12/05 00:49:40;;;;;;;37.70;25.15;;;5.10;99.90;;;;;;5001220;28;20095;-65
2022/12/05 00:52:05;;;;;;;36.20;24.77;;;4.20;99.90;;;;;;5001564;28;20129;-65
2022/12/05 00:54:31;;;;;;;37.80;24.50;;;5.10;99.90;;;;;;5000515;28;20069;-66
2022/12/05 00:56:56;;;;;;;35.55;24.40;;;4.30;99.90;;;;;;5001029;28;20527;-65
2022/12/05 00:59:22;;;;;;;36.40;24.05;;;4.40;99.90;;;;;;5000201;28;20046;-65
2022/12/05 01:01:50;;;;;;;41.50;26.05;;;4.20;99.90;;;;;;5002299;28;20050;-66
2022/12/05 01:04:18;;;;;;;34.97;24.35;;;4.20;99.90;;;;;;4997711;28;20054;-65
2022/12/05 01:06:45;;;;;;;36.67;25.38;;;4.20;99.90;;;;;;4990696;28;20440;-65
2022/12/05 01:09:13;;;;;;;41.83;24.30;;;5.20;99.90;;;;;;4982511;28;20165;-65
2022/12/05 01:11:39;;;;;;;38.65;24.67;;;4.70;99.90;;;;;;4980964;28;20051;-65
2022/12/05 01:14:05;;;;;;;36.67;24.73;;;4.20;99.90;;;;;;4980522;28;20409;-65
2022/12/05 01:16:33;;;;;;;34.08;23.73;;;4.20;99.90;;;;;;4981145;28;20047;-65
2022/12/05 01:19:02;;;;;;;35.22;24.15;;;4.20;99.90;;;;;;4980950;28;20692;-66
2022/12/05 01:21:27;;;;;;;34.85;23.58;;;4.20;99.90;;;;;;4981846;28;20464;-66
2022/12/05 01:23:54;;;;;;;31.42;22.88;;;4.50;99.90;;;;;;4982101;28;20047;-65
2022/12/05 01:26:21;;;;;;;35.78;23.30;;;4.40;99.90;;;;;;4981126;28;20043;-65
2022/12/05 01:28:48;;;;;;;33.10;22.95;;;5.20;99.90;;;;;;4983124;28;20053;-65
2022/12/05 01:31:27;;;;;;;33.70;22.08;;;4.60;99.90;;;;;;4985828;28;20069;-66
2022/12/05 01:33:54;;;;;;;36.20;23.85;;;4.40;99.90;;;;;;4983424;28;20050;-65
2022/12/05 01:36:21;;;;;;;32.60;21.70;;;4.30;99.90;;;;;;4983837;28;20061;-65
2022/12/05 01:38:47;;;;;;;33.92;22.17;;;4.30;99.90;;;;;;4986374;28;20375;-65
2022/12/05 01:41:20;;;;;;;33.97;22.80;;;4.60;99.90;;;;;;4984841;28;20064;-65
2022/12/05 01:44:02;;;;;;;30.98;21.38;;;4.70;99.90;;;;;;4985059;28;20404;-65
2022/12/05 01:46:32;;;;;;;32.75;23.00;;;4.50;99.90;;;;;;4984175;28;20057;-65
2022/12/05 01:49:04;;;;;;;30.35;20.33;;;4.50;99.90;;;;;;4985632;28;20050;-66
2022/12/05 01:51:31;;;;;;;29.83;20.88;;;4.40;99.90;;;;;;4984892;28;20046;-65
2022/12/05 01:53:58;;;;;;;30.83;21.77;;;4.50;99.90;;;;;;4986072;28;20617;-66
2022/12/05 01:56:24;;;;;;;31.75;20.13;;;4.40;99.90;;;;;;4982878;28;20057;-66
2022/12/05 01:58:52;;;;;;;26.75;18.95;;;4.70;99.90;;;;;;4984716;28;20046;-65
2022/12/05 02:01:19;;;;;;;26.33;18.65;;;5.30;99.90;;;;;;4985496;28;20057;-65
2022/12/05 02:03:47;;;;;;;25.67;18.15;;;5.00;99.90;;;;;;4985892;28;20090;-65
2022/12/05 02:06:13;;;;;;;25.80;17.48;;;4.80;99.90;;;;;;4994044;28;20157;-66
2022/12/05 02:08:40;;;;;;;25.40;17.88;;;4.60;99.90;;;;;;5003212;28;20181;-65
2022/12/05 02:11:07;;;;;;;25.70;17.92;;;4.80;99.90;;;;;;5003227;28;20061;-65
2022/12/05 02:14:04;;;;;;;27.15;16.73;;;4.80;99.90;;;;;;5004366;28;20053;-65
2022/12/05 02:16:48;;;;;;;24.05;16.05;;;4.50;99.90;;;;;;5074025;23;20032;-65
2022/12/05 02:19:48;;;;;;;24.00;15.88;;;4.80;99.90;;;;;;5000228;28;20050;-65
2022/12/05 02:22:49;;;;;;;21.98;15.55;;;4.50;99.90;;;;;;5002349;28;20046;-65
2022/12/05 02:25:14;;;;;;;21.05;15.80;;;4.60;99.90;;;;;;5003145;28;20072;-65
2022/12/05 02:27:54;;;;;;;19.70;14.90;;;4.50;99.90;;;;;;5002279;28;20528;-65
2022/12/05 02:30:23;;;;;;;24.23;15.98;;;4.50;99.90;;;;;;5003509;28;20050;-65
2022/12/05 02:32:52;;;;;;;21.60;15.40;;;5.00;99.90;;;;;;5003366;28;20045;-65
2022/12/05 02:35:26;;;;;;;19.80;14.63;;;4.90;99.90;;;;;;5002800;28;20052;-65
2022/12/05 02:38:10;;;;;;;18.38;14.63;;;4.60;99.90;;;;;;5002316;28;20669;-65
2022/12/05 02:40:49;;;;;;;20.27;15.45;;;5.80;99.90;;;;;;4999894;28;20091;-65
2022/12/05 02:43:17;;;;;;;21.42;15.35;;;4.70;99.90;;;;;;5003717;28;20052;-65
2022/12/05 02:45:46;;;;;;;20.95;15.20;;;5.60;99.90;;;;;;5003289;28;20082;-65
2022/12/05 02:48:14;;;;;;;18.77;14.30;;;5.20;99.90;;;;;;5001076;28;20057;-65
2022/12/05 02:50:42;;;;;;;20.23;14.90;;;4.50;99.90;;;;;;5003406;28;20053;-65
2022/12/05 02:53:12;;;;;;;18.40;13.95;;;4.70;99.90;;;;;;5002923;28;20054;-65
2022/12/05 02:55:40;;;;;;;18.33;14.30;;;4.50;99.90;;;;;;5002593;28;20542;-65
2022/12/05 02:58:11;;;;;;;19.60;14.23;;;4.60;99.90;;;;;;5002885;28;20937;-66
2022/12/05 03:00:39;;;;;;;20.05;14.43;;;4.80;99.90;;;;;;5003636;28;20125;-65
2022/12/05 03:03:18;;;;;;;19.15;14.45;;;4.90;99.90;;;;;;5002201;28;20058;-65
2022/12/05 03:06:05;;;;;;;20.17;13.98;;;4.70;99.90;;;;;;4996355;28;20068;-66
2022/12/05 03:08:39;;;;;;;19.45;14.82;;;4.40;99.90;;;;;;4982637;28;20145;-65
2022/12/05 03:11:05;;;;;;;18.40;13.80;;;4.50;99.90;;;;;;4983152;28;20033;-65
2022/12/05 03:13:40;;;;;;;18.75;14.50;;;4.50;99.90;;;;;;4983763;28;20042;-65
2022/12/05 03:16:17;;;;;;;17.83;14.45;;;4.70;99.90;;;;;;4982435;28;20400;-65
2022/12/05 03:18:50;;;;;;;17.83;13.25;;;4.80;99.90;;;;;;4983909;28;20042;-65
2022/12/05 03:21:29;;;;;;;21.13;14.48;;;4.70;99.90;;;;;;4983118;28;20103;-65
2022/12/05 03:24:07;;;;;;;20.25;14.07;;;4.60;99.90;;;;;;4983460;28;20118;-65
2022/12/05 03:26:36;;;;;;;18.00;13.63;;;4.40;99.90;;;;;;4982817;28;20088;-65
2022/12/05 03:29:24;;;;;;;18.30;12.60;;;4.70;99.90;;;;;;4981943;28;20056;-65
2022/12/05 03:31:55;;;;;;;16.50;12.50;;;4.40;99.90;;;;;;4983589;28;20081;-65
2022/12/05 03:34:36;;;;;;;18.05;12.70;;;4.40;99.90;;;;;;4982886;28;20109;-65
2022/12/05 03:37:07;;;;;;;14.77;11.70;;;5.50;99.90;;;;;;4982849;28;20454;-65
2022/12/05 03:39:36;;;;;;;15.60;11.73;;;4.50;99.90;;;;;;4981019;28;20073;-65
2022/12/05 03:42:14;;;;;;;16.88;12.13;;;4.40;99.90;;;;;;4982091;28;20065;-65
2022/12/05 03:44:56;;;;;;;16.13;11.77;;;4.60;99.90;;;;;;4981458;28;20126;-65
2022/12/05 03:47:55;;;;;;;14.32;11.05;;;4.50;99.90;;;;;;4982414;28;20042;-65
2022/12/05 03:50:26;;;;;;;15.02;11.25;;;4.60;99.90;;;;;;4981751;28;20035;-65
2022/12/05 03:53:02;;;;;;;16.05;11.60;;;4.40;99.90;;;;;;4982750;28;20405;-65
2022/12/05 03:55:31;;;;;;;15.13;11.00;;;4.80;99.90;;;;;;4981931;28;20050;-65
2022/12/05 03:58:04;;;;;;;14.05;11.02;;;4.50;99.90;;;;;;4982116;28;20113;-65
2022/12/05 04:00:36;;;;;;;14.48;11.05;;;5.00;99.90;;;;;;4982999;28;20481;-65
2022/12/05 04:03:14;;;;;;;14.48;10.60;;;4.60;99.90;;;;;;4982343;28;20050;-65
2022/12/05 04:05:46;;;;;;;14.63;10.10;;;4.70;99.90;;;;;;4994180;28;20061;-65
2022/12/05 04:08:26;;;;;;;14.23;10.65;;;4.40;99.90;;;;;;4982874;28;20058;-65
2022/12/05 04:10:56;;;;;;;13.27;10.30;;;4.80;99.90;;;;;;4980568;28;20042;-65
2022/12/05 04:13:30;;;;;;;14.63;10.57;;;4.60;99.90;;;;;;4982396;28;20532;-65
2022/12/05 04:19:28;;;;;;;14.15;10.57;;;4.70;99.90;;;;;;4981309;28;20464;-65
2022/12/05 04:21:55;;;;;;;13.50;10.55;;;4.40;99.90;;;;;;4981683;28;20038;-65
2022/12/05 04:27:28;;;;;;;12.20;9.32;;;4.60;99.90;;;;;;4982563;28;20140;-65
2022/12/05 04:30:08;;;;;;;12.65;9.63;;;4.60;99.90;;;;;;4980905;28;20515;-65
2022/12/05 04:32:59;;;;;;;13.05;9.40;;;4.50;99.90;;;;;;4982676;28;20179;-65
2022/12/05 04:35:40;;;;;;;12.55;9.18;;;4.50;99.90;;;;;;4979933;28;20815;-65
2022/12/05 04:38:34;;;;;;;11.43;8.75;;;4.70;99.90;;;;;;4981397;28;20084;-65
2022/12/05 04:41:06;;;;;;;11.38;8.68;;;4.70;99.90;;;;;;4981085;28;20516;-65
2022/12/05 04:43:38;;;;;;;11.13;8.55;;;4.80;99.90;;;;;;4982368;28;20050;-65
2022/12/05 04:46:07;;;;;;;11.02;8.40;;;4.40;99.90;;;;;;4980880;28;20038;-65
2022/12/05 04:48:36;;;;;;;13.02;8.98;;;4.90;99.90;;;;;;4982199;28;20473;-65
2022/12/05 04:51:05;;;;;;;11.00;8.48;;;4.40;99.90;;;;;;4982701;28;20054;-65
2022/12/05 04:53:32;;;;;;;12.00;8.50;;;4.40;99.90;;;;;;4981612;28;20162;-65
2022/12/05 04:56:00;;;;;;;11.85;8.52;;;4.80;99.90;;;;;;4981398;28;20100;-66
2022/12/05 04:58:27;;;;;;;10.82;8.80;;;4.70;99.90;;;;;;4982107;28;20061;-65
2022/12/05 05:01:32;;;;;;;12.63;8.38;;;4.70;99.90;;;;;;4980141;28;20054;-65
2022/12/05 05:04:24;;;;;;;11.15;8.40;;;4.50;99.90;;;;;;4984547;28;20663;-65
2022/12/05 05:06:50;;;;;;;12.88;8.95;;;4.80;99.90;;;;;;4996677;28;20120;-65
2022/12/05 05:09:16;;;;;;;12.23;9.10;;;4.70;99.90;;;;;;5004638;28;20117;-65
2022/12/05 05:11:42;;;;;;;12.18;9.15;;;5.40;99.90;;;;;;5004330;28;20131;-65
2022/12/05 05:14:07;;;;;;;12.32;9.15;;;4.70;99.90;;;;;;5004573;28;20492;-66
2022/12/05 05:16:36;;;;;;;13.30;9.38;;;4.50;99.90;;;;;;5004943;28;20057;-65
2022/12/05 05:19:03;;;;;;;11.63;8.63;;;5.00;99.90;;;;;;5006096;28;20104;-65
2022/12/05 05:21:38;;;;;;;12.10;8.88;;;4.80;99.90;;;;;;5004267;28;20410;-65
2022/12/05 05:24:05;;;;;;;11.75;8.63;;;4.50;99.90;;;;;;5005846;28;20108;-66
2022/12/05 05:26:34;;;;;;;13.23;9.43;;;4.80;99.90;;;;;;5005398;28;20042;-65
2022/12/05 05:29:00;;;;;;;13.15;8.60;;;5.20;99.90;;;;;;5005108;28;20095;-65
2022/12/05 05:31:26;;;;;;;14.43;9.50;;;4.80;99.90;;;;;;5005249;28;20695;-65
2022/12/05 05:33:54;;;;;;;13.55;9.40;;;5.20;99.90;;;;;;5005932;28;20425;-65
2022/12/05 05:36:21;;;;;;;12.57;9.52;;;4.80;99.90;;;;;;5005301;28;20057;-65
2022/12/05 05:38:50;;;;;;;12.15;9.63;;;5.30;99.90;;;;;;5003661;28;20045;-66
2022/12/05 05:41:17;;;;;;;11.65;9.75;;;4.80;99.90;;;;;;5002407;28;20046;-66
2022/12/05 05:43:44;;;;;;;14.40;10.07;;;5.10;99.90;;;;;;5004633;28;20088;-66
2022/12/05 05:46:10;;;;;;;12.48;9.32;;;5.60;99.90;;;;;;5004176;28;20092;-66
2022/12/05 05:48:36;;;;;;;15.18;10.27;;;4.50;99.90;;;;;;5005013;28;20075;-65
2022/12/05 05:51:04;;;;;;;14.88;10.85;;;4.80;99.90;;;;;;5004886;28;20109;-65
2022/12/05 05:53:30;;;;;;;14.13;9.93;;;4.70;99.90;;;;;;5004558;28;20456;-66
2022/12/05 05:55:56;;;;;;;13.50;9.90;;;4.50;99.90;;;;;;5001855;28;20050;-65
2022/12/05 05:58:21;;;;;;;13.43;9.63;;;4.60;99.90;;;;;;5004777;28;20042;-65
2022/12/05 06:00:47;;;;;;;14.35;10.07;;;4.50;99.90;;;;;;5003505;28;20056;-66
2022/12/05 06:03:12;;;;;;;13.50;9.27;;;4.80;99.90;;;;;;5003675;28;20120;-65
2022/12/05 06:05:38;;;;;;;14.77;10.10;;;4.60;99.90;;;;;;4996531;28;20072;-65
2022/12/05 06:08:04;;;;;;;13.85;10.45;;;4.50;99.90;;;;;;4983764;28;20042;-65
2022/12/05 06:10:29;;;;;;;15.20;10.50;;;4.50;99.90;;;;;;4982959;28;20042;-65
2022/12/05 06:12:56;;;;;;;14.60;10.30;;;4.50;99.90;;;;;;4983750;28;20096;-65
2022/12/05 06:15:23;;;;;;;13.93;9.88;;;5.50;99.90;;;;;;4984029;28;20042;-65
2022/12/05 06:17:48;;;;;;;14.93;10.30;;;5.20;99.90;;;;;;4984759;28;20100;-65
2022/12/05 06:20:14;;;;;;;14.80;10.15;;;4.70;99.90;;;;;;4984357;28;20082;-66
2022/12/05 06:22:40;;;;;;;13.32;10.32;;;4.80;99.90;;;;;;4983490;28;20054;-66
2022/12/05 06:25:06;;;;;;;16.40;11.15;;;5.20;99.90;;;;;;4984732;28;20050;-66
2022/12/05 06:27:32;;;;;;;14.73;10.88;;;4.50;99.90;;;;;;4984279;28;20034;-65
2022/12/05 06:29:58;;;;;;;14.65;10.23;;;5.10;99.90;;;;;;4984446;28;20046;-65
2022/12/05 06:32:24;;;;;;;13.30;9.82;;;4.60;99.90;;;;;;4981383;28;20480;-65
2022/12/05 06:34:49;;;;;;;13.98;10.43;;;5.40;99.90;;;;;;4999192;28;20046;-65
2022/12/05 06:37:15;;;;;;;15.02;10.20;;;4.50;99.90;;;;;;4983947;28;20133;-65
2022/12/05 06:39:41;;;;;;;13.43;9.35;;;5.10;99.90;;;;;;4982812;28;20039;-65
2022/12/05 06:42:06;;;;;;;14.05;10.05;;;4.60;99.90;;;;;;4984351;28;20050;-66
2022/12/05 06:44:32;;;;;;;13.52;9.75;;;4.60;99.90;;;;;;4983397;28;20058;-66
2022/12/05 06:46:58;;;;;;;14.52;10.82;;;4.60;99.90;;;;;;4982498;28;20113;-65
2022/12/05 06:49:31;;;;;;;16.33;10.00;;;5.20;99.90;;;;;;4984270;28;20094;-65
2022/12/05 06:51:58;;;;;;;22.40;11.50;;;4.80;99.90;;;;;;4982966;28;20038;-65
2022/12/05 06:54:24;;;;;;;16.50;10.52;;;4.60;99.90;;;;;;4983147;28;20050;-65
2022/12/05 06:56:49;;;;;;;13.73;9.82;;;4.80;99.90;;;;;;4983574;28;20126;-65
2022/12/05 06:59:15;;;;;;;18.95;11.02;;;4.90;99.90;;;;;;4983780;28;20121;-65
2022/12/05 07:01:41;;;;;;;16.20;11.25;;;4.70;99.90;;;;;;4983689;28;20046;-65
2022/12/05 07:04:14;;;;;;;17.55;11.38;;;4.70;99.90;;;;;;4986992;28;20089;-66
2022/12/05 07:06:42;;;;;;;18.75;11.95;;;4.50;99.90;;;;;;4991420;28;20074;-65
2022/12/05 07:09:08;;;;;;;19.55;11.48;;;4.80;99.90;;;;;;4983888;28;20042;-65
2022/12/05 07:11:34;;;;;;;20.70;12.43;;;4.60;99.90;;;;;;4983490;28;20042;-66
2022/12/05 07:14:00;;;;;;;21.77;12.27;;;4.90;99.90;;;;;;4983576;28;20038;-65
2022/12/05 07:16:26;;;;;;;22.48;12.75;;;4.90;99.90;;;;;;4983027;28;20053;-65
2022/12/05 07:18:52;;;;;;;19.70;12.10;;;4.60;99.90;;;;;;4983582;28;20042;-65
2022/12/05 07:21:19;;;;;;;22.88;12.55;;;4.80;99.90;;;;;;4983314;28;20046;-65
2022/12/05 07:23:46;;;;;;;21.20;12.35;;;4.60;99.90;;;;;;4982495;28;20129;-66
2022/12/05 07:26:15;;;;;;;20.08;12.52;;;4.70;99.90;;;;;;4982009;28;20061;-65
2022/12/05 07:28:40;;;;;;;22.63;12.18;;;4.80;99.90;;;;;;4983614;28;20046;-65
2022/12/05 07:31:09;;;;;;;19.27;11.15;;;4.60;99.90;;;;;;4982477;28;20666;-65
2022/12/05 07:33:36;;;;;;;23.55;11.82;;;4.70;99.90;;;;;;4982259;28;20050;-65
2022/12/05 07:36:04;;;;;;;20.63;11.65;;;4.60;99.90;;;;;;4982260;28;20061;-65
2022/12/05 07:38:30;;;;;;;17.48;11.50;;;4.40;99.90;;;;;;4982643;28;20146;-65
2022/12/05 07:40:56;;;;;;;20.85;11.52;;;4.60;99.90;;;;;;4982565;28;20043;-64
2022/12/05 07:43:22;;;;;;;22.90;11.80;;;4.60;99.90;;;;;;4983139;28;20053;-66
2022/12/05 07:45:47;;;;;;;18.25;11.30;;;4.40;99.90;;;;;;4982544;28;20102;-66
2022/12/05 07:48:13;;;;;;;20.35;11.80;;;4.50;99.90;;;;;;4982529;28;20046;-65
2022/12/05 07:50:39;;;;;;;15.98;10.90;;;4.40;99.90;;;;;;4981058;28;20046;-66
2022/12/05 07:53:05;;;;;;;17.38;10.55;;;6.00;99.90;;;;;;4982278;28;20557;-65
2022/12/05 07:55:30;;;;;;;18.33;10.77;;;4.80;99.90;;;;;;4982357;28;20034;-65
2022/12/05 07:57:56;;;;;;;16.77;10.48;;;4.60;99.90;;;;;;4982929;28;20053;-65
2022/12/05 08:00:22;;;;;;;15.55;10.50;;;4.50;99.90;;;;;;4981738;28;20038;-65
2022/12/05 08:02:47;;;;;;;15.88;9.82;;;4.40;99.90;;;;;;4982878;28;20128;-66
2022/12/05 08:05:14;;;;;;;16.70;10.43;;;4.80;99.90;;;;;;4991490;28;20103;-66
2022/12/05 08:07:40;;;;;;;20.60;10.77;;;4.80;99.90;;;;;;4984372;28;20058;-65
2022/12/05 08:10:06;;;;;;;17.52;10.25;;;4.60;99.90;;;;;;4981959;28;20054;-66
2022/12/05 08:12:32;;;;;;;17.40;10.45;;;4.50;99.90;;;;;;4980937;28;20093;-65
2022/12/05 08:14:57;;;;;;;17.35;10.38;;;4.80;99.90;;;;;;4981182;28;20038;-66
2022/12/05 08:17:23;;;;;;;15.68;10.05;;;5.00;99.90;;;;;;4980518;28;20057;-65
2022/12/05 08:19:48;;;;;;;15.45;9.90;;;4.70;99.90;;;;;;4982087;28;20109;-66
2022/12/05 08:22:14;;;;;;;14.30;10.32;;;4.90;99.90;;;;;;4982013;28;20626;-66
2022/12/05 08:24:40;;;;;;;16.85;10.40;;;4.40;99.90;;;;;;4980661;28;20050;-65
2022/12/05 08:27:06;;;;;;;16.13;10.05;;;4.70;99.90;;;;;;4979194;28;20104;-65
2022/12/05 08:29:31;;;;;;;16.60;10.65;;;4.50;99.90;;;;;;4981303;28;20054;-65
2022/12/05 08:31:57;;;;;;;16.42;10.32;;;4.50;99.90;;;;;;4981260;28;20133;-66
2022/12/05 08:34:23;;;;;;;15.77;9.80;;;4.80;99.90;;;;;;4981821;28;20456;-66
2022/12/05 08:36:49;;;;;;;16.02;10.43;;;4.40;99.90;;;;;;4981011;28;20042;-66
2022/12/05 08:39:17;;;;;;;18.35;10.48;;;4.80;99.90;;;;;;4981624;28;20058;-66
2022/12/05 08:41:44;;;;;;;15.77;10.60;;;4.50;99.90;;;;;;4982087;28;20054;-66
2022/12/05 08:44:15;;;;;;;15.25;10.05;;;4.80;99.90;;;;;;4981573;28;20061;-66
2022/12/05 08:46:41;;;;;;;16.83;9.98;;;4.60;99.90;;;;;;4982222;28;20053;-66
2022/12/05 08:49:07;;;;;;;15.82;9.68;;;4.80;99.90;;;;;;4984638;28;20031;-66
2022/12/05 08:51:33;;;;;;;16.80;10.02;;;4.80;99.90;;;;;;4981187;28;20420;-66
2022/12/05 08:54:01;;;;;;;15.18;9.93;;;4.80;99.90;;;;;;4980819;28;20096;-66
2022/12/05 08:56:27;;;;;;;15.40;10.05;;;4.80;99.90;;;;;;4982363;28;20069;-66
2022/12/05 08:58:53;;;;;;;16.25;9.43;;;4.40;99.90;;;;;;4980892;28;20579;-66
2022/12/05 09:01:20;;;;;;;17.58;9.75;;;4.90;99.90;;;;;;4980971;28;20042;-66
2022/12/05 09:03:47;;;;;;;16.30;10.15;;;4.60;99.90;;;;;;4982661;28;20046;-66
2022/12/05 09:06:21;;;;;;;16.63;10.50;;;6.20;99.90;;;;;;4993718;28;20122;-66
2022/12/05 09:08:51;;;;;;;17.65;10.50;;;4.70;99.90;;;;;;4989633;28;20057;-66
2022/12/05 09:11:22;;;;;;;18.83;10.70;;;5.00;99.90;;;;;;4992404;28;20037;-66
2022/12/05 09:13:49;;;;;;;17.30;10.43;;;4.70;99.90;;;;;;4987313;28;20078;-66
2022/12/05 09:16:17;;;;;;;17.98;10.60;;;5.20;99.90;;;;;;4982313;28;20052;-66
2022/12/05 09:18:44;;;;;;;16.42;10.68;;;5.30;99.90;;;;;;4981062;28;20076;-66
2022/12/05 09:21:18;;;;;;;16.85;10.93;;;5.40;99.90;;;;;;4982731;28;20474;-66
2022/12/05 09:23:44;;;;;;;18.00;11.15;;;4.80;99.90;;;;;;4981830;28;20421;-66
2022/12/05 09:26:12;;;;;;;16.48;10.80;;;4.80;99.90;;;;;;4981089;28;20042;-66
2022/12/05 09:28:38;;;;;;;15.55;9.95;;;4.80;99.90;;;;;;4982444;28;20046;-66
2022/12/05 09:31:06;;;;;;;15.32;9.93;;;4.40;99.90;;;;;;4980886;28;20057;-66
2022/12/05 09:33:34;;;;;;;18.00;11.55;;;4.80;99.90;;;;;;4981756;28;20057;-66
2022/12/05 09:36:11;;;;;;;21.15;10.60;;;4.60;99.90;;;;;;4980585;28;20088;-66
2022/12/05 09:38:37;;;;;;;15.85;10.35;;;4.50;99.90;;;;;;4979980;28;20044;-66
2022/12/05 09:44:27;;;;;;;15.90;10.82;;;4.50;99.90;;;;;;4981173;28;20121;-66
2022/12/05 09:47:23;;;;;;;16.80;10.63;;;4.80;99.90;;;;;;4980495;28;20543;-66
2022/12/05 09:49:54;;;;;;;18.08;10.90;;;4.50;99.90;;;;;;4980112;28;20188;-66
2022/12/05 09:52:29;;;;;;;16.38;10.15;;;5.10;99.90;;;;;;4985798;28;20078;-66
2022/12/05 09:55:00;;;;;;;14.52;10.23;;;5.10;99.90;;;;;;4983990;28;20047;-66
2022/12/05 09:57:37;;;;;;;14.93;9.80;;;4.50;99.90;;;;;;4983734;28;20078;-66
2022/12/05 10:00:06;;;;;;;14.18;9.35;;;4.50;99.90;;;;;;4988354;28;20111;-66
2022/12/05 10:02:42;;;;;;;15.77;10.15;;;4.70;99.90;;;;;;5005058;28;20721;-66
2022/12/05 10:05:24;;;;;;;16.33;10.18;;;4.90;99.90;;;;;;4998126;28;20096;-66
2022/12/05 10:07:59;;;;;;;14.30;9.52;;;4.90;99.90;;;;;;4987183;28;20416;-66
2022/12/05 10:10:33;;;;;;;15.15;9.55;;;4.70;99.90;;;;;;4984218;28;20125;-66
2022/12/05 10:13:17;;;;;;;15.73;9.75;;;4.70;99.90;;;;;;4985684;28;20053;-66
2022/12/05 10:15:51;;;;;;;15.02;9.27;;;5.00;99.90;;;;;;4985157;28;20101;-66
2022/12/05 10:18:25;;;;;;;15.82;9.15;;;4.50;99.90;;;;;;4984772;28;20390;-66
2022/12/05 10:20:59;;;;;;;14.70;8.70;;;4.90;99.90;;;;;;4984568;28;20062;-66
2022/12/05 10:23:56;;;;;;;14.13;9.15;;;4.90;99.90;;;;;;4983802;28;20052;-66
2022/12/05 10:26:27;;;;;;;12.98;8.85;;;4.70;99.90;;;;;;4984454;28;20342;-66
2022/12/05 10:29:01;;;;;;;14.57;9.20;;;4.80;99.90;;;;;;4985499;28;20116;-66
2022/12/05 10:31:32;;;;;;;16.08;9.55;;;4.70;99.90;;;;;;4999752;28;20077;-66
2022/12/05 10:34:35;;;;;;;15.70;9.98;;;5.00;99.90;;;;;;4984156;28;20076;-66
2022/12/05 10:37:20;;;;;;;13.20;8.70;;;4.60;99.90;;;;;;4984082;28;20051;-66
2022/12/05 10:39:47;;;;;;;14.45;8.95;;;4.70;99.90;;;;;;4983650;28;20081;-66
2022/12/05 10:42:27;;;;;;;15.80;9.85;;;4.60;99.90;;;;;;4984280;28;20100;-66
2022/12/05 10:45:01;;;;;;;14.73;9.48;;;4.60;99.90;;;;;;4984461;28;20137;-66
2022/12/05 10:47:28;;;;;;;15.63;9.52;;;4.80;99.90;;;;;;4999708;28;20054;-66
2022/12/05 10:49:57;;;;;;;16.20;9.48;;;4.50;99.90;;;;;;4984141;28;20047;-66
2022/12/05 10:52:23;;;;;;;14.25;9.57;;;4.50;99.90;;;;;;4984564;28;20045;-66
2022/12/05 10:54:55;;;;;;;16.10;10.40;;;4.90;99.90;;;;;;4983756;28;20049;-66
2022/12/05 10:57:24;;;;;;;15.70;10.35;;;4.50;99.90;;;;;;4982553;28;20050;-66
2022/12/05 10:59:51;;;;;;;15.80;9.52;;;5.00;99.90;;;;;;4983541;28;20129;-66
2022/12/05 11:02:30;;;;;;;16.20;10.40;;;5.00;99.90;;;;;;4982128;28;20054;-66
2022/12/05 11:04:57;;;;;;;14.85;9.70;;;4.50;99.90;;;;;;4991762;28;20049;-66
2022/12/05 11:07:30;;;;;;;14.73;9.60;;;5.60;99.90;;;;;;4989631;28;20081;-66
2022/12/05 11:10:00;;;;;;;15.35;9.77;;;5.50;99.90;;;;;;4981851;28;20780;-66
2022/12/05 11:12:37;;;;;;;14.52;9.32;;;4.80;99.90;;;;;;4997985;28;20057;-66
2022/12/05 11:15:18;;;;;;;20.45;9.88;;;5.30;99.90;;;;;;4983813;28;20046;-66
2022/12/05 11:17:45;;;;;;;16.52;9.75;;;5.20;99.90;;;;;;4998573;28;20476;-66
2022/12/05 11:20:16;;;;;;;17.70;9.30;;;4.80;99.90;;;;;;4984607;28;20073;-66
2022/12/05 11:22:46;;;;;;;16.40;10.10;;;4.50;99.90;;;;;;4982946;28;20054;-66
2022/12/05 11:25:24;;;;;;;16.38;10.23;;;5.10;99.90;;;;;;4982750;28;20636;-66
2022/12/05 11:27:51;;;;;;;14.02;9.55;;;4.60;99.90;;;;;;4984544;28;20073;-66
2022/12/05 11:30:19;;;;;;;18.25;9.88;;;4.90;99.90;;;;;;4983863;28;20058;-66
2022/12/05 11:32:45;;;;;;;15.82;9.73;;;4.90;99.90;;;;;;4982613;28;20133;-66
2022/12/05 11:35:11;;;;;;;19.10;9.68;;;4.70;99.90;;;;;;4973369;28;20188;-66
2022/12/05 11:37:43;;;;;;;18.45;9.85;;;4.80;99.90;;;;;;4970962;28;20053;-66
2022/12/05 11:40:37;;;;;;;14.75;8.38;;;4.60;99.90;;;;;;4986958;28;20066;-66
2022/12/05 11:43:32;;;;;;;13.02;8.30;;;4.90;99.90;;;;;;4994663;28;20427;-66
2022/12/05 11:46:03;;;;;;;11.57;7.68;;;4.80;99.90;;;;;;5001783;28;20487;-66
2022/12/05 11:49:04;;;;;;;10.98;7.85;;;4.90;99.90;;;;;;5002440;28;20041;-66
2022/12/05 11:51:47;;;;;;;15.60;8.85;;;4.90;99.90;;;;;;5002479;28;20070;-66
2022/12/05 11:54:47;;;;;;;15.48;8.70;;;4.70;99.90;;;;;;5000571;28;20038;-66
2022/12/05 11:57:39;;;;;;;13.18;8.02;;;4.80;99.90;;;;;;5000351;28;20129;-66
2022/12/05 12:00:13;;;;;;;11.50;7.72;;;4.60;99.90;;;;;;5002090;28;20611;-65
2022/12/05 12:03:03;;;;;;;11.35;7.75;;;4.80;99.90;;;;;;5001612;28;20054;-65
2022/12/05 12:05:36;;;;;;;10.93;7.32;;;4.70;99.90;;;;;;4994382;28;20125;-66
2022/12/05 12:08:23;;;;;;;13.68;7.50;;;5.00;99.90;;;;;;4981331;28;20058;-66
2022/12/05 12:11:13;;;;;;;11.20;7.53;;;4.90;99.90;;;;;;4980596;28;20053;-66
2022/12/05 12:14:00;;;;;;;11.23;7.00;;;4.40;99.90;;;;;;4981749;28;20045;-66
2022/12/05 12:16:39;;;;;;;10.88;7.32;;;4.60;99.90;;;;;;4982690;28;20593;-66
2022/12/05 12:19:14;;;;;;;12.02;7.55;;;5.20;99.90;;;;;;4979727;28;20382;-66
2022/12/05 12:22:17;;;;;;;13.32;7.70;;;5.20;99.90;;;;;;4982424;28;20054;-66
2022/12/05 12:25:01;;;;;;;12.70;7.68;;;5.00;99.90;;;;;;4981281;28;20057;-65
2022/12/05 12:27:32;;;;;;;12.20;7.43;;;5.00;99.90;;;;;;4981111;28;20085;-65
2022/12/05 12:30:16;;;;;;;12.07;7.65;;;4.80;99.90;;;;;;4980961;28;20042;-65
2022/12/05 12:33:00;;;;;;;15.73;7.68;;;4.70;99.90;;;;;;4982284;28;20134;-65
2022/12/05 12:35:29;;;;;;;12.90;7.87;;;5.30;99.90;;;;;;4980660;28;20042;-65
2022/12/05 12:38:21;;;;;;;11.43;7.80;;;4.70;99.90;;;;;;4981626;28;20054;-65
2022/12/05 12:40:49;;;;;;;15.27;7.18;;;4.70;99.90;;;;;;4982036;28;20047;-65
2022/12/05 12:43:15;;;;;;;11.25;7.32;;;5.70;99.90;;;;;;4980071;28;20497;-66
2022/12/05 12:45:54;;;;;;;12.45;7.35;;;6.00;99.90;;;;;;4981796;28;20052;-65
2022/12/05 12:48:38;;;;;;;11.75;7.22;;;4.70;99.90;;;;;;4981233;28;20136;-66
2022/12/05 12:51:08;;;;;;;11.88;7.43;;;5.00;99.90;;;;;;4994346;28;20061;-66
2022/12/05 12:53:56;;;;;;;12.82;7.43;;;5.00;99.90;;;;;;4999310;28;20046;-62
2022/12/05 12:56:37;;;;;;;11.00;7.07;;;5.10;99.90;;;;;;5000890;28;20535;-62
2022/12/05 12:59:22;;;;;;;10.85;6.65;;;5.00;99.90;;;;;;5001454;28;20037;-63
2022/12/05 13:02:12;;;;;;;11.82;7.03;;;5.10;99.90;;;;;;5002134;28;20522;-62
2022/12/05 13:04:46;;;;;;;11.18;6.50;;;4.80;99.90;;;;;;4996446;28;20046;-62
2022/12/05 13:07:19;;;;;;;10.07;6.40;;;4.80;99.90;;;;;;4988985;28;20038;-62
2022/12/05 13:10:26;;;;;;;10.50;6.32;;;5.60;99.90;;;;;;4980274;28;20050;-62
2022/12/05 13:12:53;;;;;;;12.50;6.63;;;4.70;99.90;;;;;;4980304;28;20612;-62